createdAt,value
2018-03-25T06:29:23.135Z,23.22
2018-03-25T06:31:50.783Z,24.01
2018-03-25T06:34:17.285Z,24.68
2018-03-25T06:36:44.178Z,25.24
2018-03-25T06:39:11.167Z,25.72
2018-03-25T06:41:37.455Z,26.15
2018-03-25T06:44:04.530Z,26.49
2018-03-25T06:46:31.091Z,26.79
2018-03-25T06:48:57.376Z,27.07
2018-03-25T06:51:23.858Z,27.38
2018-03-25T06:53:50.210Z,27.62
2018-03-25T06:56:17.194Z,27.83
2018-03-25T06:58:43.972Z,28.02
2018-03-25T07:01:10.262Z,28.16
2018-03-25T07:03:36.739Z,28.29
2018-03-25T07:06:03.273Z,28.36
2018-03-25T07:08:29.814Z,28.39
2018-03-25T07:10:56.638Z,28.52
2018-03-25T07:13:23.088Z,28.56
2018-03-25T07:15:49.439Z,28.61
2018-03-25T07:18:15.701Z,28.57
2018-03-25T07:20:43.203Z,28.61
2018-03-25T07:23:09.741Z,28.62
2018-03-25T07:25:36.573Z,28.71
2018-03-25T07:28:02.858Z,28.73
2018-03-25T07:30:29.951Z,28.81
2018-03-25T07:32:56.499Z,28.95
2018-03-25T07:35:23.030Z,28.88
2018-03-25T07:37:49.378Z,28.76
2018-03-25T07:40:16.331Z,28.70
2018-03-25T07:42:43.437Z,28.63
2018-03-25T08:16:33.839Z,22.55
2018-03-25T08:19:08.666Z,22.96
2018-03-25T08:21:41.681Z,23.35
2018-03-25T08:24:16.858Z,23.53
2018-03-25T08:26:46.475Z,23.84
2018-03-25T08:29:21.256Z,24.11
2018-03-25T08:31:55.994Z,24.31
2018-03-25T08:34:23.171Z,24.50
2018-03-25T08:36:51.541Z,24.81
2018-03-25T08:39:21.280Z,25.24
2018-03-25T08:41:53.601Z,25.63
2018-03-25T08:44:24.258Z,25.90
2018-03-25T08:49:27.988Z,25.98
2018-03-25T08:51:59.828Z,26.19
2018-03-25T08:54:32.365Z,26.43
2018-03-25T08:57:04.253Z,26.60
2018-03-25T08:59:41.668Z,26.79
2018-03-25T09:02:14.864Z,26.70
2018-03-25T09:04:45.057Z,26.76
2018-03-25T09:07:20.080Z,26.75
2018-03-25T09:09:47.669Z,26.85
2018-03-25T09:12:14.565Z,26.50
2018-03-25T09:14:43.735Z,26.02
2018-03-25T09:17:14.627Z,25.60
2018-03-25T09:19:45.526Z,24.37
